Kane, IL (62054)

4:06 AM CST on February 12, 2016 (GMT -0600)
Southland Estates | | Change Station
CLOSE
Current Station
Personal Weather Station
Location: Jerseyville, IL
Elevation: 669 ft
Nearby Weather Stations

Elev 669 ft 39.07 °N, 90.29 °W | Updated 11 seconds ago

Overcast
Overcast
23.7 °F
Feels Like 24 °F
N
0.0
Wind Variable Wind from NNE
Gusts 0.0 mph

Today
High -- | Low -- °F
--% Chance of Precip.
Yesterday
High -- | Low -- °F
Precip. -- in
Pressure 30.23 in
Visibility 8.0 miles
Clouds Mostly Cloudy 3300 ft
Overcast 4000 ft
Windchill 24 °F
Dew Point 18 °F
Humidity 78%
Rainfall 0.00 in
Snow Depth Not available.
6:57 AM 5:34 PM
Waxing Crescent, 19% visible
METAR KSET 120954Z AUTO 06003KT 8SM BKN033 OVC040 M04/M06 A3021 RMK AO2 SNE36 SLP235 P0000 T10441056
Pressure 30.23 in
Visibility 8.0 miles
Clouds Mostly Cloudy 3300 ft
Overcast 4000 ft
Windchill 24 °F
Dew Point 18 °F
Humidity 78%
Rainfall 0.00 in
Snow Depth Not available.
6:57 AM 5:34 PM
Waxing Crescent, 19% visible
METAR KSET 120954Z AUTO 06003KT 8SM BKN033 OVC040 M04/M06 A3021 RMK AO2 SNE36 SLP235 P0000 T10441056

10-Day Weather Forecast

Almanac

Astronomy

Feb. 12, 2016 Rise Set
Actual Time
Civil Twilight
Nautical Twilight
Astronomical Twilight
Moon
Length of Visible Light
Length of Day
Tomorrow will be .
, % of the Moon is Illuminated

Today's Extremes

State Highs State Lows

Community

WunderPhotos

Upload Photos

1,892,287 photos uploaded!

WunderBlog® & News

Nearby

Air Quality

  Air Quality AQ Index Pollutant
Not available.

Snow Depth

Station Depth Elevation

Earthquake Activity

City Distance Mag. Time & Date
Minimum magnitude displayed is 2.5.

Coastal Water Temperatures

Place Temperature

Stations

Nearby Weather Stations

Station Location Temp. Windchill Dew Point Humidity Wind Precip. Elev Updated Type
                   

Watches & Warnings

There are currently no watches in effect.